createdAt,value
2022-07-26T00:02:30.143Z,98359.20
2022-07-26T00:05:07.957Z,98352.00
2022-07-26T00:07:45.162Z,98344.00
2022-07-26T00:10:21.639Z,98347.00
2022-07-26T00:12:57.905Z,98340.80
2022-07-26T00:15:34.893Z,98334.60
2022-07-26T00:18:12.419Z,98324.40
2022-07-26T00:20:49.768Z,98321.80
2022-07-26T00:23:27.497Z,98320.00
2022-07-26T00:26:04.325Z,98316.20
2022-07-26T00:28:41.397Z,98313.40
2022-07-26T00:31:18.171Z,98307.20
2022-07-26T00:33:54.792Z,98300.40
2022-07-26T00:36:31.553Z,98299.20
2022-07-26T00:39:08.259Z,98297.60
2022-07-26T00:41:45.301Z,98297.80
2022-07-26T00:44:22.168Z,98291.20
2022-07-26T00:46:58.470Z,98299.20
2022-07-26T00:49:35.162Z,98301.20
2022-07-26T00:52:13.877Z,98296.60
2022-07-26T00:54:50.798Z,98302.00
2022-07-26T00:57:27.915Z,98306.60
2022-07-26T01:00:06.072Z,98306.60
2022-07-26T01:02:43.680Z,98310.60
2022-07-26T01:05:20.591Z,98309.40
2022-07-26T01:07:58.725Z,98306.60
2022-07-26T01:10:35.498Z,98298.80
2022-07-26T01:13:13.272Z,98296.60
2022-07-26T01:15:50.642Z,98292.20
2022-07-26T01:18:27.192Z,98286.20
2022-07-26T01:21:13.133Z,98283.60
2022-07-26T01:23:50.701Z,98277.60
2022-07-26T01:26:27.204Z,98276.60
2022-07-26T01:29:03.769Z,98270.20
2022-07-26T01:31:40.269Z,98266.00
2022-07-26T01:34:17.223Z,98270.20
2022-07-26T01:36:56.849Z,98267.40
2022-07-26T01:39:33.382Z,98264.60
2022-07-26T01:42:10.472Z,98266.00
2022-07-26T01:44:46.766Z,98267.00
2022-07-26T01:47:23.310Z,98263.60
2022-07-26T01:49:59.697Z,98257.40
2022-07-26T01:52:36.223Z,98254.40
2022-07-26T01:55:14.282Z,98253.00
2022-07-26T01:57:52.066Z,98249.00
2022-07-26T02:00:29.196Z,98245.40
2022-07-26T02:03:06.260Z,98243.00
2022-07-26T02:05:42.742Z,98233.00
2022-07-26T02:08:19.248Z,98228.00
2022-07-26T02:11:03.342Z,98226.20
2022-07-26T02:13:43.544Z,98227.80
2022-07-26T02:16:20.790Z,98222.60
2022-07-26T02:18:57.205Z,98222.40
2022-07-26T02:21:33.860Z,98219.40
2022-07-26T02:24:11.300Z,98214.40
2022-07-26T02:26:48.181Z,98216.40
2022-07-26T02:29:25.003Z,98214.20
2022-07-26T02:32:02.152Z,98214.80
2022-07-26T02:34:38.580Z,98221.60
2022-07-26T02:37:15.381Z,98220.60
2022-07-26T02:39:51.911Z,98218.80
2022-07-26T02:42:28.330Z,98222.00
2022-07-26T02:45:05.229Z,98218.40
2022-07-26T02:47:50.944Z,98217.60
2022-07-26T02:50:30.493Z,98217.00
2022-07-26T02:53:07.168Z,98208.20
2022-07-26T02:55:43.414Z,98211.20
2022-07-26T02:58:21.744Z,98213.60
2022-07-26T03:00:58.409Z,98207.80
2022-07-26T03:03:36.668Z,98205.00
2022-07-26T03:06:14.727Z,98203.80
2022-07-26T03:08:52.304Z,98200.40
2022-07-26T03:11:28.763Z,98196.00
2022-07-26T03:14:05.494Z,98185.20
2022-07-26T03:16:43.314Z,98185.40
2022-07-26T03:19:19.748Z,98185.00
2022-07-26T03:21:56.202Z,98180.60
2022-07-26T03:24:32.507Z,98180.60
2022-07-26T03:27:09.132Z,98180.40
2022-07-26T03:29:45.804Z,98177.40
2022-07-26T03:32:22.291Z,98172.00
2022-07-26T03:34:58.797Z,98174.20
2022-07-26T03:37:46.181Z,98174.80
2022-07-26T03:40:24.339Z,98169.80
2022-07-26T03:43:01.004Z,98172.80
2022-07-26T03:45:39.409Z,98175.80
2022-07-26T03:48:16.043Z,98170.60
2022-07-26T03:50:52.489Z,98170.80
2022-07-26T03:53:29.196Z,98168.40
2022-07-26T03:56:23.406Z,98162.00
2022-07-26T03:59:01.827Z,98163.60
2022-07-26T04:01:41.980Z,98162.60
2022-07-26T04:04:20.898Z,98158.40
2022-07-26T04:07:03.875Z,98154.60
2022-07-26T04:09:40.718Z,98156.80
2022-07-26T04:12:18.191Z,98154.80
2022-07-26T04:14:54.501Z,98151.20
2022-07-26T04:17:33.069Z,98153.40
2022-07-26T04:20:12.771Z,98151.40
2022-07-26T04:22:49.241Z,98153.80
2022-07-26T04:25:26.248Z,98159.20
2022-07-26T04:28:03.224Z,98154.80
2022-07-26T04:30:40.214Z,98152.00
2022-07-26T04:33:16.694Z,98156.00
2022-07-26T04:35:53.391Z,98156.20
2022-07-26T04:38:29.705Z,98156.40
2022-07-26T04:41:06.313Z,98156.80
2022-07-26T04:43:42.768Z,98161.00
2022-07-26T04:46:19.594Z,98158.00
2022-07-26T04:48:56.010Z,98157.20
2022-07-26T04:51:32.712Z,98159.80
2022-07-26T04:54:09.862Z,98165.80
2022-07-26T04:56:46.692Z,98165.20
2022-07-26T04:59:23.329Z,98161.60
2022-07-26T05:02:00.247Z,98161.40
2022-07-26T05:04:37.055Z,98164.40
2022-07-26T05:07:13.801Z,98166.00
2022-07-26T05:09:50.508Z,98165.60
2022-07-26T05:12:26.937Z,98170.80
2022-07-26T05:15:04.504Z,98170.40
2022-07-26T05:17:44.366Z,98172.40
2022-07-26T05:20:21.415Z,98173.20
2022-07-26T05:22:57.762Z,98172.80
2022-07-26T05:25:34.366Z,98171.20
2022-07-26T05:28:11.795Z,98178.20
2022-07-26T05:30:49.158Z,98176.60
2022-07-26T05:33:25.614Z,98183.00
2022-07-26T05:36:02.566Z,98184.80
2022-07-26T05:38:40.212Z,98181.80
2022-07-26T05:41:17.013Z,98182.40
2022-07-26T05:43:53.764Z,98174.80
2022-07-26T05:46:30.505Z,98172.60
2022-07-26T05:49:07.366Z,98172.80
2022-07-26T05:51:43.720Z,98171.40
2022-07-26T05:54:22.823Z,98179.40
2022-07-26T05:56:59.471Z,98179.80
2022-07-26T05:59:36.499Z,98181.60
2022-07-26T06:02:12.892Z,98180.00
2022-07-26T06:04:49.450Z,98184.60
2022-07-26T06:07:26.049Z,98187.60
2022-07-26T06:10:02.433Z,98187.40
2022-07-26T06:12:39.156Z,98188.40
2022-07-26T06:15:16.212Z,98197.00
2022-07-26T06:17:52.942Z,98205.60
2022-07-26T06:20:29.704Z,98219.00
2022-07-26T06:23:06.135Z,98225.40
2022-07-26T06:25:42.858Z,98232.20
2022-07-26T06:28:19.248Z,98231.00
2022-07-26T06:30:55.667Z,98233.40
2022-07-26T06:33:32.376Z,98227.40
2022-07-26T06:36:09.585Z,98240.20
2022-07-26T06:38:46.245Z,98237.80
2022-07-26T06:41:25.272Z,98236.60
2022-07-26T06:44:01.935Z,98232.80
2022-07-26T06:46:38.783Z,98233.80
2022-07-26T06:49:22.253Z,98237.00
2022-07-26T06:51:59.087Z,98238.40
2022-07-26T06:54:35.619Z,98247.20
2022-07-26T06:57:11.934Z,98249.40
2022-07-26T06:59:48.531Z,98252.00
2022-07-26T07:02:25.270Z,98253.00
2022-07-26T07:05:01.930Z,98255.00
2022-07-26T07:07:42.242Z,98245.80
2022-07-26T07:10:17.936Z,98249.60
2022-07-26T07:12:57.181Z,98251.00
2022-07-26T07:15:33.788Z,98246.40
2022-07-26T07:18:10.552Z,98254.20
2022-07-26T07:20:47.277Z,98247.20
2022-07-26T07:23:23.930Z,98245.40
2022-07-26T07:26:00.938Z,98250.60
2022-07-26T07:28:38.656Z,98251.20
2022-07-26T07:31:15.266Z,98250.40
2022-07-26T07:33:53.331Z,98251.80
2022-07-26T07:36:30.414Z,98259.80
2022-07-26T07:39:09.091Z,98258.20
2022-07-26T07:41:51.268Z,98260.80
2022-07-26T07:44:27.595Z,98269.20
2022-07-26T07:47:04.191Z,98277.20
2022-07-26T07:49:41.385Z,98280.40
2022-07-26T07:52:17.714Z,98283.60
2022-07-26T07:55:06.566Z,98287.80
2022-07-26T07:57:51.304Z,98292.00
2022-07-26T08:00:28.692Z,98293.80
2022-07-26T08:03:05.261Z,98299.40
2022-07-26T08:05:42.112Z,98305.00
2022-07-26T08:08:18.591Z,98304.00
2022-07-26T08:10:55.608Z,98312.20
2022-07-26T08:13:33.474Z,98314.00
2022-07-26T08:16:10.985Z,98319.40
2022-07-26T08:18:57.245Z,98327.80
2022-07-26T08:21:46.856Z,98334.40
2022-07-26T08:24:23.709Z,98332.20
2022-07-26T08:27:00.174Z,98336.60
2022-07-26T08:29:36.606Z,98337.40
2022-07-26T08:32:13.587Z,98348.20
2022-07-26T08:34:49.863Z,98354.20
2022-07-26T08:37:26.302Z,98359.20
2022-07-26T08:40:02.642Z,98355.60
2022-07-26T08:42:39.138Z,98361.60
2022-07-26T08:45:24.447Z,98369.20
2022-07-26T08:48:18.591Z,98375.20
2022-07-26T08:50:56.538Z,98382.40
2022-07-26T08:53:34.544Z,98383.40
2022-07-26T08:56:14.347Z,98385.80
2022-07-26T08:58:50.714Z,98392.20
2022-07-26T09:01:27.219Z,98389.60
2022-07-26T09:04:31.495Z,98399.60
2022-07-26T09:07:13.966Z,98407.40
2022-07-26T09:10:07.420Z,98411.60
2022-07-26T09:12:46.883Z,98414.20
2022-07-26T09:15:29.899Z,98416.80
2022-07-26T09:18:07.013Z,98420.40
2022-07-26T09:20:51.098Z,98421.20
2022-07-26T09:23:40.215Z,98427.00
2022-07-26T09:26:21.223Z,98427.00
2022-07-26T09:29:10.443Z,98431.40
2022-07-26T09:31:47.311Z,98440.80
2022-07-26T09:34:31.479Z,98443.80
2022-07-26T09:37:12.281Z,98447.40
2022-07-26T09:40:01.851Z,98445.20
2022-07-26T09:42:39.688Z,98452.40
2022-07-26T09:45:22.862Z,98455.00
2022-07-26T09:47:59.963Z,98455.40
2022-07-26T09:50:37.804Z,98463.80
2022-07-26T09:53:15.867Z,98468.60
2022-07-26T09:56:01.853Z,98470.60
2022-07-26T09:58:41.061Z,98470.60
2022-07-26T10:01:17.751Z,98473.60
2022-07-26T10:03:56.328Z,98468.80
2022-07-26T10:06:33.162Z,98476.00
2022-07-26T10:09:10.967Z,98473.60
2022-07-26T10:11:56.400Z,98474.20
2022-07-26T10:14:48.293Z,98481.20
2022-07-26T10:17:47.073Z,98483.80
2022-07-26T10:20:51.315Z,98493.60
2022-07-26T10:23:53.454Z,98496.60
2022-07-26T10:26:45.836Z,98496.60
2022-07-26T10:29:32.604Z,98501.80
2022-07-26T10:32:23.032Z,98504.00
2022-07-26T10:34:59.369Z,98508.40
2022-07-26T10:37:35.648Z,98510.40
2022-07-26T10:40:32.453Z,98514.20
2022-07-26T10:43:39.522Z,98519.80
2022-07-26T10:46:31.112Z,98523.00
2022-07-26T10:49:08.960Z,98520.00
2022-07-26T10:51:46.339Z,98527.40
2022-07-26T10:54:23.123Z,98527.20
2022-07-26T10:56:59.663Z,98529.60
2022-07-26T10:59:55.392Z,98527.60
2022-07-26T11:02:36.180Z,98524.60
2022-07-26T11:05:17.166Z,98526.40
2022-07-26T11:08:10.386Z,98524.20
2022-07-26T11:10:50.257Z,98536.20
2022-07-26T11:13:27.092Z,98539.40
2022-07-26T11:16:10.803Z,98544.00
2022-07-26T11:18:47.143Z,98542.20
2022-07-26T11:21:24.813Z,98547.40
2022-07-26T11:24:07.361Z,98546.20
2022-07-26T11:26:53.785Z,98546.80
2022-07-26T11:29:40.833Z,98545.40
2022-07-26T11:32:27.357Z,98547.60
2022-07-26T11:35:08.391Z,98550.20
2022-07-26T11:38:07.803Z,98548.80
2022-07-26T11:40:53.077Z,98552.20
2022-07-26T11:43:37.452Z,98557.60
2022-07-26T11:46:14.231Z,98551.20
2022-07-26T11:48:55.030Z,98549.00
2022-07-26T11:51:31.500Z,98552.60
2022-07-26T11:54:09.510Z,98551.80
2022-07-26T11:56:56.389Z,98551.20
2022-07-26T11:59:36.007Z,98552.00
2022-07-26T12:02:13.534Z,98543.60
2022-07-26T12:04:50.074Z,98549.00
2022-07-26T12:07:26.559Z,98547.80
2022-07-26T12:10:02.844Z,98545.80
2022-07-26T12:12:39.206Z,98547.20
2022-07-26T12:15:16.804Z,98544.60
2022-07-26T12:18:05.653Z,98545.40
2022-07-26T12:21:00.647Z,98545.20
2022-07-26T12:23:53.258Z,98550.60
2022-07-26T12:26:31.851Z,98545.20
2022-07-26T12:29:27.659Z,98546.40
2022-07-26T12:32:15.522Z,98542.80
2022-07-26T12:35:06.899Z,98539.80
2022-07-26T12:37:55.767Z,98540.40
2022-07-26T12:40:41.393Z,98542.80
2022-07-26T12:43:17.666Z,98543.20
2022-07-26T12:45:54.072Z,98544.80
2022-07-26T12:48:30.458Z,98545.80
2022-07-26T12:51:08.929Z,98544.20
2022-07-26T12:53:45.229Z,98550.60
2022-07-26T12:56:21.481Z,98547.60
2022-07-26T12:59:01.645Z,98548.60
2022-07-26T13:01:39.363Z,98551.80
2022-07-26T13:04:16.100Z,98553.80
2022-07-26T13:06:52.812Z,98552.40
2022-07-26T13:09:29.765Z,98557.80
2022-07-26T13:12:08.838Z,98557.00
2022-07-26T13:14:48.361Z,98557.00
2022-07-26T13:17:24.984Z,98552.20
2022-07-26T13:20:01.838Z,98556.60
2022-07-26T13:22:39.027Z,98563.80
2022-07-26T13:25:16.017Z,98570.40
2022-07-26T13:27:53.634Z,98568.60
2022-07-26T13:30:29.954Z,98573.40
2022-07-26T13:33:06.819Z,98573.80
2022-07-26T13:35:43.542Z,98574.60
2022-07-26T13:38:20.465Z,98576.00
2022-07-26T13:40:57.326Z,98577.60
2022-07-26T13:43:35.842Z,98578.80
2022-07-26T13:46:12.811Z,98583.00
2022-07-26T13:49:00.536Z,98590.40
2022-07-26T13:51:58.758Z,98598.80
2022-07-26T13:54:38.359Z,98609.00
2022-07-26T13:57:14.684Z,98626.60
2022-07-26T13:59:51.176Z,98625.80
2022-07-26T14:02:27.740Z,98617.40
2022-07-26T14:05:04.456Z,98630.60
2022-07-26T14:07:42.573Z,98636.20
2022-07-26T14:10:19.501Z,98644.20
2022-07-26T14:12:56.585Z,98641.40
2022-07-26T14:15:33.378Z,98645.80
2022-07-26T14:18:11.912Z,98642.80
2022-07-26T14:20:48.537Z,98643.60
2022-07-26T14:23:24.911Z,98647.60
2022-07-26T14:26:01.587Z,98643.00
2022-07-26T14:28:38.225Z,98640.40
2022-07-26T14:31:15.323Z,98647.80
2022-07-26T14:33:52.274Z,98653.60
2022-07-26T14:36:28.673Z,98658.20
2022-07-26T14:39:05.320Z,98652.80
2022-07-26T14:41:42.317Z,98654.20
2022-07-26T14:44:19.115Z,98653.00
2022-07-26T14:46:55.744Z,98649.40
2022-07-26T14:49:32.405Z,98645.00
2022-07-26T14:52:10.858Z,98643.80
2022-07-26T14:54:47.287Z,98642.00
2022-07-26T14:57:23.755Z,98643.80
2022-07-26T15:00:00.565Z,98640.80
2022-07-26T15:02:38.935Z,98641.00
2022-07-26T15:05:18.255Z,98640.00
2022-07-26T15:07:54.938Z,98639.00
2022-07-26T15:10:31.665Z,98648.60
2022-07-26T15:13:11.822Z,98650.00
2022-07-26T15:15:48.810Z,98651.40
2022-07-26T15:18:25.603Z,98646.20
2022-07-26T15:21:02.491Z,98642.20
2022-07-26T15:23:40.096Z,98647.20
2022-07-26T15:26:16.503Z,98649.40
2022-07-26T15:28:53.238Z,98654.20
2022-07-26T15:31:37.681Z,98656.80
2022-07-26T15:34:14.903Z,98658.20
2022-07-26T15:36:51.390Z,98656.00
2022-07-26T15:39:28.220Z,98653.20
2022-07-26T15:42:07.905Z,98649.80
2022-07-26T15:44:46.930Z,98653.40
2022-07-26T15:47:53.055Z,98651.00
2022-07-26T15:50:21.570Z,98653.80
2022-07-26T15:52:58.217Z,98660.00
2022-07-26T15:55:35.245Z,98656.80
2022-07-26T15:58:13.358Z,98665.80
2022-07-26T16:00:50.768Z,98666.00
2022-07-26T16:03:27.117Z,98662.00
2022-07-26T16:06:06.034Z,98657.80
2022-07-26T16:09:05.921Z,98660.40
2022-07-26T16:11:39.891Z,98661.80
2022-07-26T16:14:16.728Z,98661.60
2022-07-26T16:16:53.218Z,98667.00
2022-07-26T16:19:29.761Z,98672.40
2022-07-26T16:22:08.489Z,98678.40
2022-07-26T16:24:45.866Z,98679.00
2022-07-26T16:27:22.437Z,98678.60
2022-07-26T16:29:58.886Z,98677.00
2022-07-26T16:32:35.277Z,98676.80
2022-07-26T16:35:14.092Z,98674.40
2022-07-26T16:37:50.890Z,98671.00
2022-07-26T16:40:27.549Z,98667.60
2022-07-26T16:43:11.927Z,98661.60
2022-07-26T16:45:48.799Z,98660.40
2022-07-26T16:48:25.636Z,98669.80
2022-07-26T16:51:02.061Z,98660.80
2022-07-26T16:53:38.864Z,98662.00
2022-07-26T16:56:15.252Z,98664.80
2022-07-26T16:58:52.091Z,98668.00
2022-07-26T17:01:28.759Z,98666.00
2022-07-26T17:04:05.595Z,98666.60
2022-07-26T17:06:52.131Z,98661.00
2022-07-26T17:09:38.813Z,98665.80
2022-07-26T17:12:15.700Z,98666.60
2022-07-26T17:14:52.602Z,98666.60
2022-07-26T17:17:29.343Z,98668.40
2022-07-26T17:20:07.378Z,98668.20
2022-07-26T17:22:44.012Z,98664.00
2022-07-26T17:25:20.510Z,98666.60
2022-07-26T17:27:58.686Z,98669.00
2022-07-26T17:30:35.217Z,98670.40
2022-07-26T17:33:11.615Z,98665.00
2022-07-26T17:35:48.166Z,98663.00
2022-07-26T17:38:24.799Z,98661.80
2022-07-26T17:41:03.967Z,98663.80
2022-07-26T17:43:42.181Z,98667.00
2022-07-26T17:46:19.401Z,98669.60
2022-07-26T17:48:55.854Z,98669.80
2022-07-26T17:51:32.736Z,98674.60
2022-07-26T17:54:10.306Z,98674.20
2022-07-26T17:56:47.240Z,98673.20
2022-07-26T17:59:24.514Z,98677.80
2022-07-26T18:02:01.220Z,98675.80
2022-07-26T18:04:37.917Z,98673.80
2022-07-26T18:07:14.613Z,98675.60
2022-07-26T18:09:51.202Z,98678.20
2022-07-26T18:12:27.830Z,98678.80
2022-07-26T18:15:04.145Z,98682.20
2022-07-26T18:17:41.180Z,98678.80
2022-07-26T18:20:18.595Z,98684.00
2022-07-26T18:22:55.691Z,98688.40
2022-07-26T18:25:32.922Z,98690.00
2022-07-26T18:28:11.149Z,98692.60
2022-07-26T18:30:48.485Z,98693.40
2022-07-26T18:33:25.223Z,98697.20
2022-07-26T18:36:03.249Z,98700.20
2022-07-26T18:38:41.418Z,98693.60
2022-07-26T18:41:18.455Z,98691.00
2022-07-26T18:43:55.160Z,98691.00
2022-07-26T18:46:32.339Z,98701.80
2022-07-26T18:49:15.774Z,98700.20
2022-07-26T18:51:56.317Z,98699.20
2022-07-26T18:54:33.130Z,98703.20
2022-07-26T18:57:09.893Z,98703.20
2022-07-26T18:59:48.054Z,98700.60
2022-07-26T19:02:25.497Z,98698.60
2022-07-26T19:05:02.709Z,98697.00
2022-07-26T19:07:39.994Z,98697.60
2022-07-26T19:10:17.812Z,98697.20
2022-07-26T19:12:54.777Z,98697.20
2022-07-26T19:15:32.393Z,98692.60
2022-07-26T19:18:16.930Z,98694.20
2022-07-26T19:20:53.620Z,98695.80
2022-07-26T19:23:30.687Z,98695.40
2022-07-26T19:26:07.324Z,98695.60
2022-07-26T19:28:43.948Z,98697.20
2022-07-26T19:31:21.583Z,98695.20
2022-07-26T19:33:58.167Z,98689.80
2022-07-26T19:36:35.592Z,98685.40
2022-07-26T19:39:13.293Z,98681.20
2022-07-26T19:41:50.536Z,98681.20
2022-07-26T19:44:26.957Z,98679.60
2022-07-26T19:47:03.322Z,98680.00
2022-07-26T19:49:40.427Z,98681.80
2022-07-26T19:52:17.130Z,98679.20
2022-07-26T19:54:53.558Z,98677.60
2022-07-26T19:57:30.444Z,98680.80
2022-07-26T20:00:09.583Z,98680.60
2022-07-26T20:02:49.239Z,98688.00
2022-07-26T20:05:26.051Z,98686.40
2022-07-26T20:08:02.444Z,98688.20
2022-07-26T20:10:38.822Z,98684.60
2022-07-26T20:13:15.273Z,98689.80
2022-07-26T20:15:51.600Z,98687.20
2022-07-26T20:18:30.777Z,98679.40
2022-07-26T20:21:07.213Z,98681.60
2022-07-26T20:23:45.006Z,98682.80
2022-07-26T20:26:21.824Z,98686.20
2022-07-26T20:29:00.590Z,98687.60
2022-07-26T20:31:37.970Z,98687.80
2022-07-26T20:34:14.573Z,98690.00
2022-07-26T20:36:53.518Z,98693.40
2022-07-26T20:39:30.321Z,98695.20
2022-07-26T20:42:06.994Z,98697.80
2022-07-26T20:44:47.937Z,98695.20
2022-07-26T20:47:25.401Z,98703.40
2022-07-26T20:50:04.023Z,98703.20
2022-07-26T20:52:41.210Z,98700.20
2022-07-26T20:55:19.018Z,98702.80
2022-07-26T20:57:55.462Z,98706.80
2022-07-26T21:00:32.290Z,98706.40
2022-07-26T21:03:09.282Z,98703.40
2022-07-26T21:05:45.860Z,98705.80
2022-07-26T21:08:22.962Z,98708.60
2022-07-26T21:10:59.500Z,98710.00
2022-07-26T21:13:36.518Z,98708.40
2022-07-26T21:16:13.466Z,98707.80
2022-07-26T21:18:53.151Z,98706.20
2022-07-26T21:21:30.750Z,98704.00
2022-07-26T21:24:08.503Z,98705.20
2022-07-26T21:26:45.695Z,98704.60
2022-07-26T21:29:22.122Z,98706.00
2022-07-26T21:31:58.845Z,98708.40
2022-07-26T21:34:35.369Z,98711.60
2022-07-26T21:37:11.911Z,98713.00
2022-07-26T21:39:48.348Z,98720.00
2022-07-26T21:42:26.813Z,98718.60
2022-07-26T21:45:03.225Z,98716.40
2022-07-26T21:47:39.922Z,98719.00
2022-07-26T21:50:17.293Z,98719.20
2022-07-26T21:52:53.922Z,98716.20
2022-07-26T21:55:30.542Z,98715.20
2022-07-26T21:58:07.647Z,98720.80
2022-07-26T22:00:44.124Z,98719.00
2022-07-26T22:03:21.159Z,98718.60
2022-07-26T22:05:58.461Z,98714.00
2022-07-26T22:08:36.012Z,98716.00
2022-07-26T22:11:12.974Z,98717.40
2022-07-26T22:13:49.458Z,98713.60
2022-07-26T22:16:26.223Z,98712.40
2022-07-26T22:19:02.711Z,98712.20
2022-07-26T22:21:39.883Z,98715.60
2022-07-26T22:24:16.222Z,98720.20
2022-07-26T22:26:52.640Z,98722.20
2022-07-26T22:29:39.961Z,98726.00
2022-07-26T22:32:16.967Z,98720.40
2022-07-26T22:34:53.451Z,98721.00
2022-07-26T22:37:30.228Z,98722.00
2022-07-26T22:40:08.145Z,98719.80
2022-07-26T22:42:45.960Z,98716.60
2022-07-26T22:45:22.454Z,98718.60
2022-07-26T22:47:59.728Z,98715.00
2022-07-26T22:50:36.530Z,98714.80
2022-07-26T22:53:13.015Z,98711.80
2022-07-26T22:55:49.260Z,98714.20
2022-07-26T22:58:25.814Z,98715.40
2022-07-26T23:01:02.286Z,98713.60
2022-07-26T23:03:38.724Z,98709.20
2022-07-26T23:06:31.403Z,98709.20
2022-07-26T23:09:09.211Z,98712.60
2022-07-26T23:11:46.162Z,98709.80
2022-07-26T23:14:22.468Z,98709.60
2022-07-26T23:16:58.793Z,98707.20
2022-07-26T23:19:35.433Z,98711.20
2022-07-26T23:22:11.813Z,98710.40
2022-07-26T23:24:48.560Z,98712.20
2022-07-26T23:27:25.055Z,98710.60
2022-07-26T23:30:01.333Z,98704.60
2022-07-26T23:32:37.620Z,98710.00
2022-07-26T23:35:15.953Z,98709.60
2022-07-26T23:37:52.269Z,98709.60
2022-07-26T23:40:28.806Z,98714.20
2022-07-26T23:43:06.585Z,98708.60
2022-07-26T23:45:42.944Z,98712.00
2022-07-26T23:48:19.605Z,98714.40
2022-07-26T23:50:56.295Z,98712.80
2022-07-26T23:53:32.891Z,98715.80
2022-07-26T23:56:09.943Z,98713.20
2022-07-26T23:58:46.615Z,98715.40
